Terminal Aerodrome Forecast
Issued by NWS

Home | Current Version | Previous Version | Graphics & Text | Print | Product List | Glossary On
Versions: 1 2 3 4 5 6 7 8 9 10 11 12 13 14 15 16 17 18 19 20 21
000
FTUS41 KCLE 161000 AAA
TAFFDY
TAF AMD
KFDY 161001Z 1610/1706 16008KT 6SM -RA BR SCT008 OVC012
      TEMPO 1610/1612 18006KT 4SM -RA BR OVC008
     FM161200 20010KT 4SM -SHRA BR OVC008
     FM161500 24012KT 4SM -SHRA BR OVC006
     FM170000 25015KT 6SM BR OVC008=

USA.gov is the U.S. government's official web portal to all federal, state and local government web resources and services.